Time;durP1;ratioP1;P1;durP2;ratioP2;P2;SDS_P1;SDS_P2;PMS_P1;PMS_P2;Temp;Humidity;BMP_temperature;BMP_pressure;BME280_temperature;BME280_humidity;BME280_pressure;Samples;Min_cycle;Max_cycle;Signal;HPM_P1;HPM_P2
2023/02/04 00:01:20;;;;;;;76.15;7.45;;;6.90;99.90;;;;;;6309156;22;20474;-80
2023/02/04 00:03:46;;;;;;;66.45;7.60;;;6.50;99.90;;;;;;6293450;22;20026;-81
2023/02/04 00:06:11;;;;;;;55.60;6.15;;;6.90;99.90;;;;;;6298814;22;20071;-80
2023/02/04 00:08:37;;;;;;;63.00;7.20;;;7.00;99.90;;;;;;6323722;22;20045;-80
2023/02/04 00:11:04;;;;;;;65.15;7.80;;;6.80;99.90;;;;;;6304818;22;20041;-81
2023/02/04 00:13:29;;;;;;;61.25;8.23;;;6.80;99.90;;;;;;6328128;22;20022;-81
2023/02/04 00:15:55;;;;;;;42.50;6.22;;;7.10;99.90;;;;;;6302005;22;20019;-80
2023/02/04 00:18:21;;;;;;;65.32;7.53;;;6.80;99.90;;;;;;6322702;22;20015;-80
2023/02/04 00:20:46;;;;;;;65.15;7.82;;;7.10;99.90;;;;;;6323245;22;20034;-82
2023/02/04 00:23:12;;;;;;;57.13;7.60;;;6.60;99.90;;;;;;6292074;22;20038;-83
2023/02/04 00:25:38;;;;;;;67.65;8.20;;;6.50;99.90;;;;;;6314655;22;20026;-82
2023/02/04 00:28:05;;;;;;;65.97;7.78;;;7.10;99.90;;;;;;6313530;22;20019;-83
2023/02/04 00:30:31;;;;;;;69.95;7.75;;;6.70;99.90;;;;;;6289379;22;20015;-82
2023/02/04 00:32:56;;;;;;;65.32;7.95;;;7.00;99.90;;;;;;6289474;22;20011;-83
2023/02/04 00:35:23;;;;;;;61.47;7.70;;;6.60;99.90;;;;;;6314134;22;20008;-81
2023/02/04 00:37:49;;;;;;;59.35;7.50;;;7.10;99.90;;;;;;6285404;22;20108;-81
2023/02/04 00:40:15;;;;;;;73.20;8.40;;;7.20;99.90;;;;;;6314018;22;20015;-81
2023/02/04 00:42:40;;;;;;;65.70;7.95;;;6.60;99.90;;;;;;6314275;22;20003;-81
2023/02/04 00:45:06;;;;;;;68.00;7.13;;;7.20;99.90;;;;;;6314567;22;20015;-81
2023/02/04 00:47:32;;;;;;;70.65;7.53;;;6.70;99.90;;;;;;6296093;22;20011;-81
2023/02/04 00:49:58;;;;;;;69.00;8.05;;;6.90;99.90;;;;;;6322157;22;20015;-81
2023/02/04 00:52:23;;;;;;;67.45;8.50;;;6.80;99.90;;;;;;6323531;22;20015;-81
2023/02/04 00:54:49;;;;;;;70.10;7.90;;;6.70;99.90;;;;;;6322727;22;20038;-81
2023/02/04 00:57:15;;;;;;;63.95;7.57;;;6.80;99.90;;;;;;6323061;22;20015;-81
2023/02/04 00:59:40;;;;;;;80.13;7.53;;;7.20;99.90;;;;;;6323608;22;20067;-81
2023/02/04 01:02:06;;;;;;;56.13;8.30;;;7.30;99.90;;;;;;6324216;22;20015;-81
2023/02/04 01:04:32;;;;;;;74.82;8.23;;;7.20;99.90;;;;;;6323663;22;20059;-81
2023/02/04 01:06:57;;;;;;;57.85;7.50;;;7.10;99.90;;;;;;6323813;22;20015;-81
2023/02/04 01:09:23;;;;;;;64.22;7.78;;;6.80;99.90;;;;;;6322362;22;20015;-81
2023/02/04 01:11:49;;;;;;;67.03;8.30;;;7.20;99.90;;;;;;6325453;22;20011;-81
2023/02/04 01:14:14;;;;;;;66.65;7.45;;;7.30;99.90;;;;;;6324511;22;20050;-81
2023/02/04 01:16:40;;;;;;;60.90;8.10;;;7.30;99.90;;;;;;6297717;22;20026;-81
2023/02/04 01:19:06;;;;;;;70.07;8.52;;;7.00;99.90;;;;;;6297632;22;20045;-81
2023/02/04 01:25:38;;;;;;;64.28;7.55;;;6.90;99.90;;;;;;6326081;22;20022;-81
2023/02/04 01:28:04;;;;;;;67.25;8.52;;;6.70;99.90;;;;;;6321131;22;20063;-81
2023/02/04 01:30:29;;;;;;;81.78;8.32;;;6.90;99.90;;;;;;6322151;22;20022;-81
2023/02/04 01:32:55;;;;;;;76.45;8.63;;;7.00;99.90;;;;;;6325181;22;20022;-81
2023/02/04 01:35:20;;;;;;;67.10;7.72;;;7.10;99.90;;;;;;6324150;22;20011;-80
2023/02/04 01:41:27;;;;;;;79.30;7.30;;;6.80;99.90;;;;;;6329685;22;20030;-81
2023/02/04 01:43:53;;;;;;;71.60;7.72;;;7.10;99.90;;;;;;6305493;22;19999;-80
2023/02/04 01:46:19;;;;;;;68.28;8.00;;;7.00;99.90;;;;;;6332490;22;20029;-81
2023/02/04 01:48:45;;;;;;;69.40;9.27;;;6.80;99.90;;;;;;6305079;22;19999;-80
2023/02/04 01:55:36;;;;;;;77.18;7.93;;;6.60;99.90;;;;;;6325657;22;20041;-81
2023/02/04 01:58:02;;;;;;;63.35;7.18;;;6.50;99.90;;;;;;6303801;22;20067;-81
2023/02/04 02:00:31;;;;;;;68.05;7.38;;;6.90;99.90;;;;;;6301979;22;20022;-81
2023/02/04 02:02:58;;;;;;;80.35;8.50;;;6.60;99.90;;;;;;6307346;22;20057;-81
2023/02/04 02:05:29;;;;;;;74.05;8.45;;;6.70;99.90;;;;;;6332934;22;20039;-81
2023/02/04 02:07:58;;;;;;;60.53;7.55;;;6.60;99.90;;;;;;6305802;22;20041;-81
2023/02/04 02:10:23;;;;;;;80.43;7.85;;;6.60;99.90;;;;;;6333413;22;20007;-80
2023/02/04 02:12:50;;;;;;;62.80;7.75;;;7.00;99.90;;;;;;6302953;22;20012;-81
2023/02/04 02:15:16;;;;;;;60.58;7.63;;;6.60;99.90;;;;;;6358248;22;20015;-81
2023/02/04 02:17:43;;;;;;;78.40;8.43;;;7.10;99.90;;;;;;6304558;22;20022;-81
2023/02/04 02:20:12;;;;;;;70.88;9.05;;;6.80;99.90;;;;;;6331118;22;20019;-80
2023/02/04 02:26:22;;;;;;;66.05;7.25;;;7.20;99.90;;;;;;6359091;22;20014;-81
2023/02/04 02:28:49;;;;;;;70.93;8.32;;;7.10;99.90;;;;;;6332009;22;20011;-81
2023/02/04 02:31:17;;;;;;;80.18;9.38;;;6.60;99.90;;;;;;6356586;22;20012;-81
2023/02/04 02:33:43;;;;;;;71.10;8.48;;;6.50;99.90;;;;;;6303606;22;20318;-81
2023/02/04 02:36:09;;;;;;;72.80;8.40;;;7.00;99.90;;;;;;6355393;22;20019;-81
2023/02/04 02:38:35;;;;;;;86.40;10.10;;;7.10;99.90;;;;;;6302121;22;20015;-81
2023/02/04 02:41:02;;;;;;;79.82;9.30;;;6.80;99.90;;;;;;6329301;22;20457;-81
2023/02/04 02:43:28;;;;;;;89.13;9.10;;;7.00;99.90;;;;;;6328263;22;20006;-81
2023/02/04 02:45:57;;;;;;;73.45;8.77;;;6.70;99.90;;;;;;6329060;22;20010;-81
2023/02/04 02:48:23;;;;;;;84.78;8.35;;;6.90;99.90;;;;;;6328537;22;20015;-81
2023/02/04 02:50:49;;;;;;;77.57;9.40;;;6.40;99.90;;;;;;6302811;22;20017;-82
2023/02/04 02:56:57;;;;;;;68.10;8.30;;;7.00;99.90;;;;;;6355925;22;20044;-81
2023/02/04 02:59:24;;;;;;;69.80;8.05;;;6.80;99.90;;;;;;6326352;22;20363;-81
2023/02/04 03:02:00;;;;;;;81.97;9.63;;;6.70;99.90;;;;;;6355440;22;20042;-81
2023/02/04 03:04:28;;;;;;;69.95;8.32;;;6.80;99.90;;;;;;6355306;22;20032;-81
2023/02/04 03:10:57;;;;;;;68.65;8.63;;;6.30;99.90;;;;;;6353014;22;20063;-80
2023/02/04 03:13:23;;;;;;;64.97;7.38;;;6.30;99.90;;;;;;6321063;22;20014;-81
2023/02/04 03:15:50;;;;;;;63.55;7.75;;;6.80;99.90;;;;;;6322773;22;20367;-81
2023/02/04 03:18:19;;;;;;;84.35;8.43;;;6.30;99.90;;;;;;6320372;22;20015;-81
2023/02/04 03:20:45;;;;;;;63.35;7.45;;;6.20;99.90;;;;;;6319939;22;20137;-81
2023/02/04 03:23:11;;;;;;;65.70;8.90;;;6.70;99.90;;;;;;6317991;22;20119;-81
2023/02/04 03:25:38;;;;;;;74.18;8.63;;;6.70;99.90;;;;;;6317440;22;20392;-82
2023/02/04 03:28:04;;;;;;;83.32;8.38;;;6.40;99.90;;;;;;6316821;22;20011;-82
2023/02/04 03:30:30;;;;;;;79.18;7.80;;;6.20;99.90;;;;;;6289196;22;20015;-82
2023/02/04 03:32:55;;;;;;;78.70;7.57;;;6.80;99.90;;;;;;6313096;22;20025;-82
2023/02/04 03:35:21;;;;;;;82.22;7.43;;;6.50;99.90;;;;;;6312767;22;20018;-82
2023/02/04 03:37:47;;;;;;;70.00;7.60;;;6.30;99.90;;;;;;6307912;22;20019;-82
2023/02/04 03:40:14;;;;;;;62.28;7.25;;;6.30;99.90;;;;;;6278772;22;20041;-82
2023/02/04 03:42:39;;;;;;;54.60;6.82;;;6.60;99.90;;;;;;6303174;22;20041;-82
2023/02/04 03:45:05;;;;;;;72.68;6.82;;;6.60;99.90;;;;;;6303288;22;20106;-83
2023/02/04 03:47:31;;;;;;;54.47;6.45;;;6.50;99.90;;;;;;6303741;22;20049;-82
2023/02/04 03:49:57;;;;;;;53.90;5.93;;;6.00;99.90;;;;;;6277163;22;20026;-82
2023/02/04 03:52:23;;;;;;;58.30;6.18;;;6.20;99.90;;;;;;6278063;22;20402;-81
2023/02/04 03:54:48;;;;;;;49.97;5.95;;;6.00;99.90;;;;;;6277446;22;20015;-82
2023/02/04 03:57:17;;;;;;;48.15;6.45;;;6.00;99.90;;;;;;6303191;22;20022;-81
2023/02/04 03:59:42;;;;;;;53.78;6.05;;;5.90;99.90;;;;;;6303819;22;20061;-82
2023/02/04 04:02:08;;;;;;;47.08;6.32;;;6.40;99.90;;;;;;6301646;22;20311;-82
2023/02/04 04:04:34;;;;;;;50.53;5.65;;;6.30;99.90;;;;;;6303775;22;20047;-81
2023/02/04 04:06:59;;;;;;;49.03;5.75;;;5.80;99.90;;;;;;6301954;22;20022;-81
2023/02/04 04:09:25;;;;;;;42.25;4.80;;;6.30;99.90;;;;;;6301413;22;20019;-81
2023/02/04 04:11:51;;;;;;;44.75;5.00;;;6.00;99.90;;;;;;6275610;22;20101;-81
2023/02/04 04:14:16;;;;;;;46.38;5.70;;;6.20;99.90;;;;;;6324866;22;20014;-81
2023/02/04 04:16:42;;;;;;;50.17;5.55;;;5.90;99.90;;;;;;6309388;22;20405;-82
2023/02/04 04:19:08;;;;;;;41.42;4.90;;;6.20;99.90;;;;;;6307885;22;20090;-82
2023/02/04 04:21:33;;;;;;;42.55;5.43;;;6.20;99.90;;;;;;6337170;22;20011;-82
2023/02/04 04:24:00;;;;;;;42.97;4.90;;;6.30;99.90;;;;;;6344591;22;20006;-82
2023/02/04 04:26:25;;;;;;;54.30;5.45;;;6.20;99.90;;;;;;6315299;22;20360;-81
2023/02/04 04:28:51;;;;;;;39.05;5.38;;;6.10;99.90;;;;;;6312751;22;20015;-82
2023/02/04 04:31:16;;;;;;;40.83;4.95;;;5.70;99.90;;;;;;6309369;22;20109;-82
2023/02/04 04:33:42;;;;;;;43.45;5.47;;;6.00;99.90;;;;;;6309863;22;20371;-82
2023/02/04 04:36:08;;;;;;;39.42;4.82;;;6.20;99.90;;;;;;6310620;22;20014;-82
2023/02/04 04:38:33;;;;;;;43.53;4.75;;;6.00;99.90;;;;;;6308136;22;20010;-82
2023/02/04 04:40:59;;;;;;;40.97;4.95;;;5.80;99.90;;;;;;6310391;22;20418;-82
2023/02/04 04:43:25;;;;;;;41.67;4.43;;;5.50;99.90;;;;;;6310353;22;20015;-81
2023/02/04 04:45:51;;;;;;;44.25;5.10;;;5.90;99.90;;;;;;6311221;22;20011;-81
2023/02/04 04:48:17;;;;;;;42.33;5.18;;;6.10;99.90;;;;;;6313484;22;20014;-82
2023/02/04 04:50:43;;;;;;;36.92;5.07;;;5.80;99.90;;;;;;6292258;22;20003;-82
2023/02/04 04:53:10;;;;;;;35.50;4.50;;;5.70;99.90;;;;;;6311660;22;20046;-81
2023/02/04 04:55:39;;;;;;;41.50;4.53;;;5.60;99.90;;;;;;6358141;22;20044;-81
2023/02/04 04:58:06;;;;;;;38.95;5.15;;;6.10;99.90;;;;;;6285912;22;20373;-81
2023/02/04 05:00:32;;;;;;;41.85;5.47;;;5.60;99.90;;;;;;6338654;22;20421;-80
2023/02/04 05:02:58;;;;;;;40.30;4.80;;;6.10;99.90;;;;;;6283669;22;20042;-81
2023/02/04 05:05:24;;;;;;;37.22;4.75;;;6.00;99.90;;;;;;6284545;22;20006;-81
2023/02/04 05:07:50;;;;;;;39.08;4.63;;;6.00;99.90;;;;;;6282430;22;20967;-81
2023/02/04 05:10:16;;;;;;;39.30;4.72;;;5.70;99.90;;;;;;6308666;22;20022;-82
2023/02/04 05:12:41;;;;;;;32.53;4.47;;;5.50;99.90;;;;;;6282243;22;20303;-81
2023/02/04 05:15:07;;;;;;;38.22;4.47;;;5.50;99.90;;;;;;6282525;22;20014;-81
2023/02/04 05:17:33;;;;;;;51.08;5.45;;;5.70;99.90;;;;;;6334726;22;20015;-81
2023/02/04 05:19:59;;;;;;;36.33;4.63;;;5.60;99.90;;;;;;6308754;22;20384;-80
2023/02/04 05:22:25;;;;;;;40.92;4.63;;;6.00;99.90;;;;;;6310065;22;20298;-81
2023/02/04 05:24:50;;;;;;;28.75;4.28;;;5.90;99.90;;;;;;6283365;22;20426;-82
2023/02/04 05:27:16;;;;;;;35.00;3.75;;;5.70;99.90;;;;;;6309596;22;20342;-82
2023/02/04 05:29:42;;;;;;;32.88;4.15;;;5.90;99.90;;;;;;6283180;22;20022;-82
2023/02/04 05:32:07;;;;;;;36.13;4.30;;;5.70;99.90;;;;;;6283053;22;20079;-81
2023/02/04 05:34:33;;;;;;;39.50;4.90;;;5.90;99.90;;;;;;6309203;22;20043;-81
2023/02/04 05:36:59;;;;;;;37.20;4.55;;;5.90;99.90;;;;;;6283791;22;20019;-81
2023/02/04 05:39:24;;;;;;;34.17;4.78;;;5.70;99.90;;;;;;6282793;22;20007;-82
2023/02/04 05:41:50;;;;;;;36.05;4.53;;;6.00;99.90;;;;;;6284151;22;20022;-81
2023/02/04 05:44:16;;;;;;;35.53;4.57;;;5.40;99.90;;;;;;6283420;22;20021;-81
2023/02/04 05:46:41;;;;;;;33.78;4.57;;;5.80;99.90;;;;;;6282882;22;20010;-81
2023/02/04 05:49:07;;;;;;;42.92;4.93;;;5.70;99.90;;;;;;6310171;22;20022;-82
2023/02/04 05:51:32;;;;;;;33.58;4.05;;;5.40;99.90;;;;;;6310737;22;20011;-82
2023/02/04 05:53:58;;;;;;;31.42;3.85;;;5.80;99.90;;;;;;6309401;22;20093;-81
2023/02/04 05:56:24;;;;;;;33.00;3.92;;;5.60;99.90;;;;;;6281451;22;20090;-81
2023/02/04 05:58:50;;;;;;;33.80;3.75;;;5.80;99.90;;;;;;6279439;22;20007;-80
2023/02/04 06:01:16;;;;;;;30.80;3.83;;;5.40;99.90;;;;;;6314858;22;20085;-81
2023/02/04 06:03:42;;;;;;;29.90;3.53;;;5.30;99.90;;;;;;6336655;22;20010;-81
2023/02/04 06:06:08;;;;;;;27.65;3.47;;;5.50;99.90;;;;;;6284038;22;20056;-82
2023/02/04 06:08:33;;;;;;;38.08;4.07;;;5.50;99.90;;;;;;6280397;22;20383;-81
2023/02/04 06:10:59;;;;;;;22.08;2.78;;;5.60;99.90;;;;;;6283873;22;20045;-82
2023/02/04 06:13:25;;;;;;;23.48;3.00;;;5.40;99.90;;;;;;6303230;22;20126;-81
2023/02/04 06:15:50;;;;;;;30.35;3.78;;;5.40;99.90;;;;;;6305824;22;20086;-81
2023/02/04 06:18:16;;;;;;;23.83;3.38;;;5.50;99.90;;;;;;6311252;22;20177;-81
2023/02/04 06:20:41;;;;;;;34.28;3.78;;;5.30;99.90;;;;;;6303822;22;20016;-81
2023/02/04 06:23:07;;;;;;;38.35;3.97;;;5.30;99.90;;;;;;6277639;22;20011;-81
2023/02/04 06:25:33;;;;;;;30.25;4.03;;;5.40;99.90;;;;;;6304879;22;20018;-81
2023/02/04 06:27:59;;;;;;;26.40;4.47;;;5.60;99.90;;;;;;6276685;22;20058;-81
2023/02/04 06:30:24;;;;;;;28.10;4.10;;;5.20;99.90;;;;;;6302504;22;20011;-82
2023/02/04 06:32:50;;;;;;;28.08;3.70;;;5.50;99.90;;;;;;6303197;22;20012;-82
2023/02/04 06:35:16;;;;;;;26.98;3.75;;;5.30;99.90;;;;;;6303386;22;20054;-82
2023/02/04 06:37:42;;;;;;;29.00;3.67;;;5.30;99.90;;;;;;6303147;22;20090;-83
2023/02/04 06:40:09;;;;;;;28.25;3.78;;;5.60;99.90;;;;;;6303354;22;20469;-81
2023/02/04 06:42:35;;;;;;;20.42;3.60;;;5.60;99.90;;;;;;6277198;22;20350;-82
2023/02/04 06:45:00;;;;;;;22.00;2.58;;;5.50;99.90;;;;;;6277243;22;20091;-81
2023/02/04 06:47:26;;;;;;;26.70;2.88;;;5.10;99.90;;;;;;6277773;22;20356;-82
2023/02/04 06:49:52;;;;;;;30.27;3.22;;;5.30;99.90;;;;;;6303537;22;20047;-82
2023/02/04 06:52:17;;;;;;;22.98;3.55;;;5.60;99.90;;;;;;6305740;22;20018;-82
2023/02/04 06:54:43;;;;;;;19.38;2.80;;;5.20;99.90;;;;;;6277396;22;20082;-82
2023/02/04 06:57:09;;;;;;;26.38;3.35;;;5.20;99.90;;;;;;6304118;22;20007;-82
2023/02/04 06:59:37;;;;;;;20.08;2.58;;;5.30;99.90;;;;;;6303982;22;20136;-82
2023/02/04 07:02:05;;;;;;;27.42;3.65;;;5.20;99.90;;;;;;6303854;22;20050;-82
2023/02/04 07:04:30;;;;;;;18.45;3.05;;;5.60;99.90;;;;;;6302122;22;20018;-83
2023/02/04 07:06:56;;;;;;;29.20;3.22;;;5.50;99.90;;;;;;6278103;22;20333;-81
2023/02/04 07:09:42;;;;;;;25.52;3.05;;;5.50;99.90;;;;;;6275878;22;20015;-82
2023/02/04 07:12:08;;;;;;;22.27;3.05;;;5.50;99.90;;;;;;6303394;22;20096;-82
2023/02/04 07:14:34;;;;;;;20.42;2.88;;;5.50;99.90;;;;;;6302690;22;20326;-82
2023/02/04 07:17:00;;;;;;;21.50;2.88;;;5.50;99.90;;;;;;6301163;22;20042;-82
2023/02/04 07:19:25;;;;;;;18.65;2.58;;;5.20;99.90;;;;;;6278738;22;20411;-81
2023/02/04 07:21:53;;;;;;;20.88;2.90;;;5.30;99.90;;;;;;6278842;22;20343;-78
2023/02/04 07:24:19;;;;;;;16.42;3.05;;;5.50;99.90;;;;;;6301107;22;20435;-79
2023/02/04 07:27:04;;;;;;;22.38;3.25;;;5.50;99.90;;;;;;6302815;22;20049;-83
2023/02/04 07:29:30;;;;;;;20.98;2.75;;;5.60;99.90;;;;;;6276160;22;20015;-82
2023/02/04 07:32:01;;;;;;;28.13;3.05;;;5.40;99.90;;;;;;6300476;22;20021;-82
2023/02/04 07:34:30;;;;;;;21.83;3.63;;;5.30;99.90;;;;;;6275344;22;20041;-82
2023/02/04 07:36:56;;;;;;;23.02;3.20;;;5.40;99.90;;;;;;6301263;22;20479;-82
2023/02/04 07:39:21;;;;;;;32.65;3.28;;;5.10;99.90;;;;;;6302122;22;20102;-82
2023/02/04 07:41:47;;;;;;;23.05;3.00;;;5.60;99.90;;;;;;6277038;22;20138;-82
2023/02/04 07:44:13;;;;;;;32.63;3.90;;;5.70;99.90;;;;;;6277258;22;20007;-82
2023/02/04 07:46:38;;;;;;;26.08;2.92;;;5.20;99.90;;;;;;6276520;22;20094;-82
2023/02/04 07:49:04;;;;;;;23.42;3.08;;;5.20;99.90;;;;;;6303136;22;20125;-82
2023/02/04 07:51:30;;;;;;;20.85;3.50;;;5.10;99.90;;;;;;6304060;22;20026;-82
2023/02/04 07:53:56;;;;;;;24.80;3.28;;;5.40;99.90;;;;;;6304273;22;20015;-82
2023/02/04 07:56:21;;;;;;;31.80;3.45;;;5.50;99.90;;;;;;6305521;22;20018;-82
2023/02/04 07:58:47;;;;;;;29.02;3.47;;;5.50;99.90;;;;;;6303699;22;20011;-82
2023/02/04 08:01:13;;;;;;;18.13;3.08;;;5.10;99.90;;;;;;6276709;22;20076;-82
2023/02/04 08:03:38;;;;;;;22.45;2.80;;;5.10;99.90;;;;;;6301961;22;20007;-79
2023/02/04 08:06:04;;;;;;;24.13;2.97;;;5.40;99.90;;;;;;6300889;22;20042;-81
2023/02/04 08:08:30;;;;;;;21.15;2.70;;;5.40;99.90;;;;;;6302768;22;20015;-81
2023/02/04 08:10:55;;;;;;;23.63;3.17;;;5.30;99.90;;;;;;6303161;22;20038;-81
2023/02/04 08:13:24;;;;;;;23.35;3.25;;;5.60;99.90;;;;;;6275549;22;20122;-83
2023/02/04 08:15:51;;;;;;;30.95;3.40;;;5.60;99.90;;;;;;6276043;22;20529;-80
2023/02/04 08:18:19;;;;;;;13.40;2.95;;;5.50;99.90;;;;;;6276277;22;20015;-81
2023/02/04 08:20:45;;;;;;;17.95;3.25;;;5.30;99.90;;;;;;6276507;22;20013;-81
2023/02/04 08:23:11;;;;;;;23.67;3.40;;;5.30;99.90;;;;;;6249905;22;20034;-81
2023/02/04 08:25:36;;;;;;;26.15;3.45;;;5.50;99.90;;;;;;6277724;22;20012;-81
2023/02/04 08:28:02;;;;;;;21.73;3.75;;;5.20;99.90;;;;;;6276869;22;20076;-81
2023/02/04 08:30:28;;;;;;;20.27;3.13;;;5.60;99.90;;;;;;6275805;22;20114;-81
2023/02/04 08:32:53;;;;;;;21.27;3.25;;;5.60;99.90;;;;;;6249357;22;20023;-83
2023/02/04 08:35:19;;;;;;;19.05;3.20;;;5.20;99.90;;;;;;6254506;22;20086;-79
2023/02/04 08:37:45;;;;;;;25.63;3.60;;;5.10;99.90;;;;;;6255199;22;20437;-81
2023/02/04 08:40:11;;;;;;;32.33;3.55;;;5.50;99.90;;;;;;6286448;22;20335;-80
2023/02/04 08:42:36;;;;;;;14.32;3.22;;;5.40;99.90;;;;;;6321702;22;20011;-80
2023/02/04 08:45:02;;;;;;;23.73;3.53;;;5.30;99.90;;;;;;6293052;22;20076;-80
2023/02/04 08:47:28;;;;;;;20.05;3.10;;;5.50;99.90;;;;;;6287300;22;20399;-80
2023/02/04 08:49:55;;;;;;;17.85;2.60;;;5.30;99.90;;;;;;6285576;22;20049;-80
2023/02/04 08:52:21;;;;;;;20.73;2.88;;;5.50;99.90;;;;;;6256155;22;20084;-81
2023/02/04 08:54:46;;;;;;;16.77;2.55;;;5.70;99.90;;;;;;6275853;22;20011;-81
2023/02/04 08:57:12;;;;;;;20.77;2.90;;;5.60;99.90;;;;;;6250473;22;20023;-80
2023/02/04 08:59:38;;;;;;;18.90;2.70;;;5.60;99.90;;;;;;6276397;22;20011;-81
2023/02/04 09:02:03;;;;;;;17.83;3.22;;;5.60;99.90;;;;;;6277426;22;20011;-80
2023/02/04 09:04:31;;;;;;;21.02;2.60;;;5.60;99.90;;;;;;6251267;22;20026;-80
2023/02/04 09:06:56;;;;;;;20.65;2.67;;;5.60;99.90;;;;;;6251698;22;20361;-81
2023/02/04 09:09:22;;;;;;;19.10;2.80;;;5.60;99.90;;;;;;6260794;22;20046;-81
2023/02/04 09:11:48;;;;;;;25.48;2.72;;;5.80;99.90;;;;;;6276116;22;20015;-80
2023/02/04 09:14:14;;;;;;;17.08;2.42;;;5.50;99.90;;;;;;6244667;22;20327;-82
2023/02/04 09:16:39;;;;;;;18.25;3.33;;;5.70;99.90;;;;;;6271720;22;20086;-83
2023/02/04 09:19:07;;;;;;;16.45;2.28;;;5.90;99.90;;;;;;6247642;22;20057;-82
2023/02/04 09:21:34;;;;;;;18.45;3.17;;;5.70;99.90;;;;;;6244957;22;20062;-81
2023/02/04 09:24:00;;;;;;;21.50;2.67;;;5.90;99.90;;;;;;6271636;22;20015;-81
2023/02/04 09:26:25;;;;;;;12.38;2.22;;;6.00;99.90;;;;;;6267449;22;20058;-81
2023/02/04 09:28:51;;;;;;;20.52;2.83;;;6.00;99.90;;;;;;6242929;22;20020;-81
2023/02/04 09:31:17;;;;;;;18.95;2.70;;;5.70;99.90;;;;;;6243363;22;20116;-82
2023/02/04 09:33:43;;;;;;;12.40;2.70;;;6.00;99.90;;;;;;6243644;22;20019;-82
2023/02/04 09:36:08;;;;;;;18.42;2.58;;;5.90;99.90;;;;;;6270860;22;20011;-82
2023/02/04 09:38:34;;;;;;;14.63;2.40;;;5.60;99.90;;;;;;6243969;22;20039;-82
2023/02/04 09:41:04;;;;;;;19.83;2.90;;;6.00;99.90;;;;;;6267971;22;20023;-82
2023/02/04 09:43:33;;;;;;;16.90;2.38;;;5.80;99.90;;;;;;6270380;22;20477;-82
2023/02/04 09:45:59;;;;;;;14.40;2.50;;;5.90;99.90;;;;;;6241294;22;20012;-81
2023/02/04 09:48:25;;;;;;;13.57;2.25;;;6.10;99.90;;;;;;6269160;22;20023;-81
2023/02/04 09:50:52;;;;;;;11.57;2.30;;;5.80;99.90;;;;;;6247105;22;20086;-82
2023/02/04 09:53:37;;;;;;;22.15;2.85;;;6.00;99.90;;;;;;6245320;22;20050;-80
2023/02/04 09:56:03;;;;;;;15.65;2.67;;;6.10;99.90;;;;;;6245932;22;20393;-80
2023/02/04 09:58:33;;;;;;;12.60;2.60;;;5.90;99.90;;;;;;6270801;22;20577;-80
2023/02/04 10:01:08;;;;;;;17.05;2.60;;;5.90;99.90;;;;;;6245735;22;20012;-82
2023/02/04 10:03:34;;;;;;;;;;;6.10;99.90;;;;;;6273508;22;20304;-82
2023/02/04 10:06:00;;;;;;;14.30;2.90;;;6.10;99.90;;;;;;6273982;22;19985;-82
2023/02/04 10:08:29;;;;;;;15.77;2.60;;;6.20;99.90;;;;;;6243769;22;20085;-82
2023/02/04 10:10:55;;;;;;;16.33;2.65;;;6.30;99.90;;;;;;6272964;22;20730;-82
2023/02/04 10:13:33;;;;;;;21.20;2.80;;;6.30;99.90;;;;;;6273941;22;20023;-82
2023/02/04 10:16:02;;;;;;;15.48;2.60;;;6.20;99.90;;;;;;6250204;22;20419;-82
2023/02/04 10:18:31;;;;;;;15.40;2.58;;;6.40;99.90;;;;;;6276822;22;20106;-83
2023/02/04 10:21:08;;;;;;;17.92;2.83;;;6.40;99.90;;;;;;6277720;22;20046;-82
2023/02/04 10:23:33;;;;;;;16.38;2.40;;;6.40;99.90;;;;;;6277841;22;20065;-82
2023/02/04 10:25:59;;;;;;;13.48;2.13;;;6.60;99.90;;;;;;6251864;22;20177;-82
2023/02/04 10:28:35;;;;;;;7.90;2.30;;;6.60;99.90;;;;;;6272845;22;20019;-83
2023/02/04 10:31:01;;;;;;;11.88;2.53;;;6.80;99.90;;;;;;6274115;22;20053;-83
2023/02/04 10:33:27;;;;;;;20.42;2.58;;;6.90;99.90;;;;;;6272439;22;20110;-83
2023/02/04 10:35:55;;;;;;;13.48;2.05;;;6.90;99.90;;;;;;6249198;22;20022;-81
2023/02/04 10:38:21;;;;;;;17.88;2.50;;;6.80;99.90;;;;;;6273313;22;20019;-82
2023/02/04 10:40:47;;;;;;;14.65;2.10;;;6.70;99.90;;;;;;6271949;22;20034;-82
2023/02/04 10:43:19;;;;;;;13.50;2.70;;;7.10;99.90;;;;;;6273547;22;20342;-82
2023/02/04 10:46:01;;;;;;;8.65;2.13;;;7.00;99.90;;;;;;6273315;22;20022;-81
2023/02/04 10:48:28;;;;;;;13.27;2.20;;;7.20;99.90;;;;;;6247116;22;20016;-81
2023/02/04 10:50:57;;;;;;;14.82;2.15;;;7.00;99.90;;;;;;6248524;22;20018;-80
2023/02/04 10:56:17;;;;;;;16.15;2.45;;;6.80;99.90;;;;;;6273150;22;20088;-80
2023/02/04 10:58:44;;;;;;;16.02;3.20;;;6.60;99.90;;;;;;6274924;22;20011;-80
2023/02/04 11:01:11;;;;;;;11.77;2.20;;;6.70;99.90;;;;;;6275778;22;20011;-82
2023/02/04 11:03:38;;;;;;;13.65;2.42;;;6.80;99.90;;;;;;6274130;22;20027;-81
2023/02/04 11:06:12;;;;;;;24.58;4.72;;;7.10;99.90;;;;;;6250245;22;20019;-81
2023/02/04 11:08:38;;;;;;;;;;;7.00;99.90;;;;;;6277017;22;20007;-82
2023/02/04 11:11:07;;;;;;;18.73;3.50;;;6.80;99.90;;;;;;6277863;22;19938;-81
2023/02/04 11:13:50;;;;;;;11.10;2.15;;;6.90;99.90;;;;;;6251807;22;20455;-81
2023/02/04 11:16:37;;;;;;;29.10;6.38;;;6.90;99.90;;;;;;6304559;22;20022;-82
2023/02/04 11:19:05;;;;;;;18.85;4.53;;;7.00;99.90;;;;;;6252037;22;20488;-81
2023/02/04 11:21:31;;;;;;;10.70;2.83;;;7.10;99.90;;;;;;6278313;22;20011;-81
2023/02/04 11:24:15;;;;;;;20.55;4.50;;;6.90;99.90;;;;;;6277516;22;20033;-82
2023/02/04 11:26:49;;;;;;;13.30;4.60;;;7.10;99.90;;;;;;6252560;22;20022;-82
2023/02/04 11:29:14;;;;;;;16.08;3.20;;;7.10;99.90;;;;;;6278184;22;20102;-82
2023/02/04 11:31:48;;;;;;;15.63;3.22;;;6.90;99.90;;;;;;6277091;22;20050;-81
2023/02/04 11:34:13;;;;;;;10.95;2.03;;;7.10;99.90;;;;;;6278428;22;20444;-82
2023/02/04 11:37:01;;;;;;;11.15;2.33;;;7.00;99.90;;;;;;6278659;22;20016;-82
2023/02/04 11:43:15;;;;;;;12.48;2.00;;;7.10;99.90;;;;;;6304843;22;20133;-81
2023/02/04 11:45:41;;;;;;;17.65;2.63;;;7.40;99.90;;;;;;6304017;22;20012;-81
2023/02/04 11:48:17;;;;;;;10.88;1.80;;;7.50;99.90;;;;;;6275581;22;20027;-81
2023/02/04 11:50:57;;;;;;;10.85;1.90;;;7.30;99.90;;;;;;6251734;22;20399;-82
2023/02/04 11:53:27;;;;;;;10.90;1.70;;;7.30;99.90;;;;;;6250278;22;20343;-80
2023/02/04 11:55:53;;;;;;;11.75;2.00;;;7.20;99.90;;;;;;6249338;22;20046;-83
2023/02/04 11:58:20;;;;;;;7.55;1.77;;;7.20;99.90;;;;;;6274974;22;20454;-81
2023/02/04 12:00:46;;;;;;;7.05;1.83;;;7.20;99.90;;;;;;6303506;22;20372;-81
2023/02/04 12:03:20;;;;;;;9.27;1.83;;;7.30;99.90;;;;;;6275238;22;20050;-82
2023/02/04 12:05:46;;;;;;;8.30;1.83;;;7.10;99.90;;;;;;6304019;22;20018;-82
2023/02/04 12:08:26;;;;;;;7.78;1.50;;;7.20;99.90;;;;;;6275971;22;20451;-82
2023/02/04 12:11:25;;;;;;;8.60;1.60;;;7.40;99.90;;;;;;6274027;22;20296;-82
2023/02/04 12:13:53;;;;;;;9.85;1.83;;;7.40;99.90;;;;;;6302283;22;20072;-81
2023/02/04 12:16:19;;;;;;;9.32;1.80;;;7.20;99.90;;;;;;6276682;22;20414;-83
2023/02/04 12:18:45;;;;;;;12.48;2.13;;;7.20;99.90;;;;;;6253665;22;20017;-82
2023/02/04 12:21:11;;;;;;;9.75;1.67;;;7.20;99.90;;;;;;6287533;22;20015;-82
2023/02/04 12:23:36;;;;;;;12.55;1.90;;;6.90;99.90;;;;;;6326554;22;20023;-82
2023/02/04 12:26:02;;;;;;;13.77;2.03;;;7.00;99.90;;;;;;6287844;22;20523;-81
2023/02/04 12:28:28;;;;;;;13.48;1.73;;;7.20;99.90;;;;;;6277266;22;20455;-83
2023/02/04 12:30:54;;;;;;;10.35;1.80;;;7.30;99.90;;;;;;6253450;22;20047;-82
2023/02/04 12:33:21;;;;;;;10.82;1.80;;;7.40;99.90;;;;;;6278860;22;20011;-81
2023/02/04 12:35:47;;;;;;;12.25;2.00;;;7.50;99.90;;;;;;6260536;22;20019;-80
2023/02/04 12:38:13;;;;;;;9.15;1.90;;;7.40;99.90;;;;;;6284581;22;20065;-84
2023/02/04 12:40:57;;;;;;;12.98;2.42;;;7.50;99.90;;;;;;6254961;22;20030;-83
2023/02/04 12:43:24;;;;;;;8.57;1.95;;;7.60;99.90;;;;;;6278009;22;20426;-81
2023/02/04 12:45:50;;;;;;;10.48;2.30;;;7.30;99.90;;;;;;6308121;22;20046;-81
2023/02/04 12:48:16;;;;;;;9.57;1.75;;;7.30;99.90;;;;;;6306398;22;20011;-81
2023/02/04 12:50:41;;;;;;;6.22;1.80;;;7.20;99.90;;;;;;6255213;22;20015;-78
2023/02/04 12:53:07;;;;;;;9.57;1.90;;;7.20;99.90;;;;;;6252066;22;20291;-83
2023/02/04 12:55:33;;;;;;;10.73;2.50;;;7.00;99.90;;;;;;6248765;22;20067;-84
2023/02/04 12:57:59;;;;;;;10.18;2.10;;;7.00;99.90;;;;;;6250974;22;20015;-82
2023/02/04 13:00:26;;;;;;;12.25;2.70;;;7.00;99.90;;;;;;6278688;22;20191;-82
2023/02/04 13:02:53;;;;;;;14.27;2.40;;;7.00;99.90;;;;;;6277264;22;20398;-82
2023/02/04 13:05:19;;;;;;;16.05;2.17;;;7.00;99.90;;;;;;6250812;22;20015;-83
2023/02/04 13:07:45;;;;;;;9.43;2.20;;;7.20;99.90;;;;;;6251065;22;20518;-81
2023/02/04 13:10:12;;;;;;;11.95;2.40;;;7.20;99.90;;;;;;6276919;22;20058;-82
2023/02/04 13:12:38;;;;;;;11.55;2.30;;;7.20;99.90;;;;;;6251108;22;20080;-82
2023/02/04 13:15:04;;;;;;;8.48;1.90;;;7.30;99.90;;;;;;6243284;22;20346;-82
2023/02/04 13:17:30;;;;;;;10.60;2.30;;;7.10;99.90;;;;;;6246965;22;20024;-83